createdAt,value
2019-04-04T00:00:45.179Z,73.14
2019-04-04T00:03:16.024Z,73.17
2019-04-04T00:05:45.433Z,73.59
2019-04-04T00:08:14.827Z,73.81
2019-04-04T00:10:44.235Z,73.57
2019-04-04T00:13:13.665Z,73.31
2019-04-04T00:15:45.343Z,73.55
2019-04-04T00:18:14.190Z,74.12
2019-04-04T00:20:43.670Z,73.56
2019-04-04T00:23:13.064Z,73.66
2019-04-04T00:25:42.472Z,72.29
2019-04-04T00:28:12.976Z,72.42
2019-04-04T00:30:43.050Z,72.61
2019-04-04T00:33:12.520Z,72.99
2019-04-04T00:35:41.928Z,72.82
2019-04-04T00:38:11.420Z,72.79
2019-04-04T00:40:41.964Z,73.08
2019-04-04T00:43:11.886Z,72.92
2019-04-04T00:45:41.344Z,73.05
2019-04-04T00:48:10.763Z,73.29
2019-04-04T00:50:40.145Z,73.27
2019-04-04T00:53:09.939Z,72.96
2019-04-04T00:55:40.645Z,73.14
2019-04-04T00:58:10.131Z,72.83
2019-04-04T01:00:39.618Z,72.50
2019-04-04T01:03:09.114Z,72.77
2019-04-04T01:05:38.545Z,73.21
2019-04-04T01:08:07.975Z,73.66
2019-04-04T01:10:37.514Z,73.23
2019-04-04T01:13:06.908Z,72.76
2019-04-04T01:15:36.341Z,73.18
2019-04-04T01:18:06.166Z,73.40
2019-04-04T01:20:36.283Z,72.94
2019-04-04T01:23:05.704Z,72.57
2019-04-04T01:25:35.083Z,71.32
2019-04-04T01:28:06.108Z,72.16
2019-04-04T01:30:35.599Z,72.10
2019-04-04T01:33:05.053Z,72.12
2019-04-04T01:35:35.724Z,72.11
2019-04-04T01:38:05.345Z,72.16
2019-04-04T01:40:34.758Z,72.61
2019-04-04T01:43:04.261Z,72.85
2019-04-04T01:45:33.672Z,73.04
2019-04-04T01:48:03.051Z,73.18
2019-04-04T01:50:32.467Z,72.68
2019-04-04T01:53:01.892Z,72.80
2019-04-04T01:55:32.974Z,72.00
2019-04-04T01:58:02.367Z,72.04
2019-04-04T02:00:31.776Z,72.75
2019-04-04T02:03:01.238Z,72.62
2019-04-04T02:05:30.643Z,72.67
2019-04-04T02:08:01.006Z,72.63
2019-04-04T02:10:30.925Z,72.93
2019-04-04T02:13:00.413Z,72.86
2019-04-04T02:15:29.819Z,73.14
2019-04-04T02:17:59.221Z,73.41
2019-04-04T02:20:28.615Z,73.42
2019-04-04T02:22:58.037Z,73.45
2019-04-04T02:25:27.445Z,73.24
2019-04-04T02:27:56.847Z,72.95
2019-04-04T02:30:26.267Z,73.41
2019-04-04T02:32:59.482Z,73.77
2019-04-04T02:35:26.813Z,73.30
2019-04-04T02:37:56.306Z,73.16
2019-04-04T02:40:25.689Z,73.28
2019-04-04T02:42:55.536Z,72.92
2019-04-04T02:45:25.182Z,73.10
2019-04-04T02:47:54.629Z,73.31
2019-04-04T02:50:24.795Z,73.32
2019-04-04T02:52:54.179Z,73.01
2019-04-04T02:55:23.601Z,73.06
2019-04-04T02:57:53.085Z,73.21
2019-04-04T03:00:26.430Z,73.38
2019-04-04T03:02:53.765Z,73.57
2019-04-04T03:05:23.181Z,73.53
2019-04-04T03:07:52.595Z,73.33
2019-04-04T03:10:22.079Z,73.05
2019-04-04T03:12:51.486Z,73.01
2019-04-04T03:15:20.961Z,73.04
2019-04-04T03:17:50.347Z,73.19
2019-04-04T03:20:19.865Z,73.71
2019-04-04T03:22:49.261Z,74.17
2019-04-04T03:25:18.652Z,73.66
2019-04-04T03:27:48.094Z,74.81
2019-04-04T03:30:17.766Z,74.54
2019-04-04T03:32:52.484Z,75.03
2019-04-04T03:35:26.010Z,75.54
2019-04-04T03:37:49.460Z,75.62
2019-04-04T03:40:19.806Z,75.90
2019-04-04T03:42:49.318Z,76.51
2019-04-04T03:45:18.706Z,76.53
2019-04-04T03:47:48.102Z,76.85
2019-04-04T03:50:17.518Z,76.80
2019-04-04T03:52:46.910Z,76.32
2019-04-04T03:55:16.314Z,76.29
2019-04-04T03:57:45.703Z,76.47
2019-04-04T04:00:24.127Z,76.66
2019-04-04T04:02:53.518Z,76.58
2019-04-04T04:05:27.039Z,76.62
2019-04-04T04:07:56.713Z,76.97
2019-04-04T04:10:26.477Z,77.16
2019-04-04T04:12:55.861Z,77.57
2019-04-04T04:15:29.340Z,76.83
2019-04-04T04:17:56.426Z,76.13
2019-04-04T04:20:25.780Z,76.46
2019-04-04T04:22:55.191Z,76.32
2019-04-04T04:25:24.597Z,76.25
2019-04-04T04:27:54.007Z,76.98
2019-04-04T04:30:23.402Z,76.77
2019-04-04T04:32:55.825Z,76.63
2019-04-04T04:35:23.910Z,77.22
2019-04-04T04:37:53.951Z,77.92
2019-04-04T04:40:23.770Z,78.12
2019-04-04T04:42:53.174Z,78.09
2019-04-04T04:45:22.572Z,77.20
2019-04-04T04:47:55.935Z,77.99
2019-04-04T04:50:23.106Z,77.87
2019-04-04T04:52:52.534Z,77.97
2019-04-04T04:55:21.927Z,78.81
2019-04-04T04:57:51.327Z,78.93
2019-04-04T05:00:20.734Z,78.48
2019-04-04T05:02:51.017Z,78.62
2019-04-04T05:05:21.391Z,79.20
2019-04-04T05:07:50.812Z,79.07
2019-04-04T05:10:20.276Z,78.73
2019-04-04T05:12:52.712Z,78.58
2019-04-04T05:15:21.353Z,78.39
2019-04-04T05:17:50.906Z,78.48
2019-04-04T05:20:20.342Z,78.71
2019-04-04T05:22:49.717Z,78.26
2019-04-04T05:25:19.139Z,78.33
2019-04-04T05:27:48.522Z,78.02
2019-04-04T05:30:20.217Z,78.18
2019-04-04T05:32:50.031Z,77.58
2019-04-04T05:35:20.161Z,78.05
2019-04-04T05:37:49.662Z,77.96
2019-04-04T05:40:19.317Z,78.17
2019-04-04T05:42:48.723Z,78.29
2019-04-04T05:45:18.135Z,78.06
2019-04-04T05:47:47.540Z,77.59
2019-04-04T05:50:17.077Z,77.84
2019-04-04T05:52:46.418Z,77.97
2019-04-04T05:55:15.879Z,77.71
2019-04-04T05:57:45.321Z,78.18
2019-04-04T06:00:15.423Z,78.27
2019-04-04T06:02:44.818Z,78.42
2019-04-04T06:05:14.366Z,76.41
2019-04-04T06:07:43.828Z,76.17
2019-04-04T06:10:13.403Z,76.84
2019-04-04T06:12:43.384Z,76.89
2019-04-04T06:15:13.145Z,77.36
2019-04-04T06:17:42.599Z,76.70
2019-04-04T06:20:13.007Z,76.75
2019-04-04T06:22:43.255Z,76.41
2019-04-04T06:25:12.740Z,76.69
2019-04-04T06:27:42.135Z,76.53
2019-04-04T06:30:12.286Z,75.99
2019-04-04T06:32:41.701Z,76.19
2019-04-04T06:35:13.289Z,75.71
2019-04-04T06:37:42.432Z,76.81
2019-04-04T06:40:12.279Z,76.15
2019-04-04T06:42:41.673Z,73.67
2019-04-04T06:45:11.325Z,75.11
2019-04-04T06:47:40.718Z,75.01
2019-04-04T06:50:10.412Z,75.32
2019-04-04T06:52:39.920Z,74.24
2019-04-04T06:55:09.548Z,72.10
2019-04-04T06:57:38.928Z,73.32
2019-04-04T07:00:09.791Z,75.05
2019-04-04T07:02:39.260Z,74.80
2019-04-04T07:05:10.719Z,73.90
2019-04-04T07:07:43.092Z,74.16
2019-04-04T07:10:11.920Z,73.29
2019-04-04T07:12:41.408Z,72.28
2019-04-04T07:15:13.278Z,72.33
2019-04-04T07:17:42.356Z,73.14
2019-04-04T07:20:12.473Z,74.06
2019-04-04T07:22:41.897Z,74.00
2019-04-04T07:25:11.409Z,73.15
2019-04-04T07:27:40.805Z,73.33
2019-04-04T07:30:10.866Z,73.60
2019-04-04T07:36:12.332Z,73.89
2019-04-04T07:38:41.714Z,74.00
2019-04-04T07:41:11.132Z,73.35
2019-04-04T07:43:40.560Z,74.28
2019-04-04T07:46:16.744Z,74.49
2019-04-04T07:48:41.104Z,74.40
2019-04-04T07:51:10.514Z,74.76
2019-04-04T07:53:39.928Z,73.97
2019-04-04T07:56:09.340Z,72.58
2019-04-04T07:58:38.754Z,72.94
2019-04-04T08:01:08.189Z,72.41
2019-04-04T08:03:37.575Z,73.07
2019-04-04T08:06:06.957Z,74.11
2019-04-04T08:08:36.368Z,72.46
2019-04-04T08:11:05.824Z,74.04
2019-04-04T08:13:35.242Z,74.18
2019-04-04T08:16:05.558Z,72.95
2019-04-04T08:18:34.959Z,73.55
2019-04-04T08:21:05.686Z,73.56
2019-04-04T08:23:35.246Z,73.89
2019-04-04T08:26:04.679Z,74.13
2019-04-04T08:28:34.095Z,72.88
2019-04-04T08:31:03.521Z,72.66
2019-04-04T08:33:32.900Z,73.62
2019-04-04T08:36:06.093Z,72.69
2019-04-04T08:38:33.511Z,72.72
2019-04-04T08:41:02.904Z,72.67
2019-04-04T08:43:32.325Z,73.59
2019-04-04T08:46:01.730Z,73.54
2019-04-04T08:48:31.127Z,71.77
2019-04-04T08:51:00.754Z,71.82
2019-04-04T08:53:39.740Z,72.46
2019-04-04T08:56:01.253Z,72.96
2019-04-04T08:58:30.715Z,70.99
2019-04-04T09:01:00.104Z,71.25
2019-04-04T09:03:29.517Z,73.35
2019-04-04T09:05:59.010Z,73.88
2019-04-04T09:08:28.431Z,74.68
2019-04-04T09:10:57.848Z,75.01
2019-04-04T09:13:27.241Z,74.50
2019-04-04T09:15:56.665Z,74.58
2019-04-04T09:18:26.075Z,74.32
2019-04-04T09:20:55.535Z,74.36
2019-04-04T09:23:24.954Z,73.57
2019-04-04T09:26:04.983Z,72.61
2019-04-04T09:28:25.458Z,73.01
2019-04-04T09:30:54.846Z,72.54
2019-04-04T09:33:24.262Z,73.32
2019-04-04T09:35:53.650Z,73.50
2019-04-04T09:38:23.060Z,73.51
2019-04-04T09:40:52.466Z,73.65
2019-04-04T09:43:21.896Z,73.65
2019-04-04T09:45:51.284Z,73.35
2019-04-04T09:48:20.692Z,74.03
2019-04-04T09:50:50.087Z,74.57
2019-04-04T09:53:19.508Z,73.90
2019-04-04T09:55:48.882Z,73.33
2019-04-04T09:58:18.342Z,73.63
2019-04-04T10:00:49.457Z,74.09
2019-04-04T10:03:18.850Z,73.32
2019-04-04T10:05:48.254Z,73.78
2019-04-04T10:08:17.734Z,73.38
2019-04-04T10:10:47.131Z,72.18
2019-04-04T10:13:16.526Z,72.93
2019-04-04T10:15:45.935Z,72.56
2019-04-04T10:18:15.319Z,72.14
2019-04-04T10:20:44.731Z,73.08
2019-04-04T10:23:14.121Z,72.92
2019-04-04T10:25:45.760Z,73.14
2019-04-04T10:28:15.820Z,73.57
2019-04-04T10:30:45.243Z,73.57
2019-04-04T10:33:14.643Z,73.41
2019-04-04T10:35:44.037Z,72.69
2019-04-04T10:38:14.164Z,71.89
2019-04-04T10:40:43.587Z,71.81
2019-04-04T10:43:12.974Z,71.95
2019-04-04T10:45:42.380Z,71.07
2019-04-04T10:48:11.778Z,70.59
2019-04-04T10:50:41.181Z,71.55
2019-04-04T10:53:10.575Z,71.04
2019-04-04T10:55:39.999Z,71.21
2019-04-04T10:58:09.383Z,71.69
2019-04-04T11:00:38.788Z,69.76
2019-04-04T11:03:08.187Z,69.92
2019-04-04T11:05:37.617Z,70.28
2019-04-04T11:08:07.005Z,69.56
2019-04-04T11:10:36.416Z,69.63
2019-04-04T11:13:05.803Z,69.83
2019-04-04T11:15:35.211Z,70.26
2019-04-04T11:18:04.697Z,69.91
2019-04-04T11:20:34.109Z,69.16
2019-04-04T11:23:03.506Z,68.86
2019-04-04T11:25:32.894Z,70.62
2019-04-04T11:28:02.298Z,70.01
2019-04-04T11:30:31.706Z,71.81
2019-04-04T11:33:01.108Z,71.24
2019-04-04T11:35:30.492Z,71.50
2019-04-04T11:37:59.896Z,71.36
2019-04-04T11:40:29.282Z,70.62
2019-04-04T11:42:58.690Z,70.88
2019-04-04T11:45:28.080Z,70.83
2019-04-04T11:47:57.478Z,71.27
2019-04-04T11:50:27.040Z,70.35
2019-04-04T11:52:56.450Z,70.11
2019-04-04T11:55:25.830Z,70.23
2019-04-04T11:57:55.246Z,69.78
2019-04-04T12:00:31.978Z,69.67
2019-04-04T12:03:01.398Z,70.19
2019-04-04T12:05:30.772Z,70.36
2019-04-04T12:08:00.176Z,70.58
2019-04-04T12:10:29.558Z,70.25
2019-04-04T12:12:58.961Z,69.26
2019-04-04T12:15:28.373Z,69.00
2019-04-04T12:17:57.753Z,68.71
2019-04-04T12:20:27.144Z,68.80
2019-04-04T12:22:56.555Z,68.69
2019-04-04T12:25:25.942Z,70.56
2019-04-04T12:27:55.441Z,68.89
2019-04-04T12:30:24.950Z,68.74
2019-04-04T12:32:54.371Z,69.18
2019-04-04T12:35:23.772Z,70.20
2019-04-04T12:37:53.201Z,71.04
2019-04-04T12:40:22.606Z,70.20
2019-04-04T12:42:52.018Z,70.59
2019-04-04T12:45:22.047Z,70.12
2019-04-04T12:47:51.496Z,70.07
2019-04-04T12:50:20.884Z,68.49
2019-04-04T12:52:50.299Z,68.04
2019-04-04T12:55:19.693Z,66.68
2019-04-04T12:57:49.108Z,66.34
2019-04-04T13:00:18.676Z,65.54
2019-04-04T13:02:48.093Z,64.31
2019-04-04T13:05:17.483Z,64.49
2019-04-04T13:07:46.895Z,65.09
2019-04-04T13:10:16.826Z,63.67
2019-04-04T13:12:46.231Z,64.21
2019-04-04T13:15:16.676Z,64.99
2019-04-04T13:17:46.090Z,62.45
2019-04-04T13:20:15.731Z,62.78
2019-04-04T13:22:45.176Z,60.09
2019-04-04T13:25:14.878Z,61.29
2019-04-04T13:27:44.297Z,59.88
2019-04-04T13:30:13.962Z,61.07
2019-04-04T13:32:43.370Z,60.50
2019-04-04T13:35:12.940Z,59.33
2019-04-04T13:37:42.436Z,57.51
2019-04-04T13:40:12.260Z,59.86
2019-04-04T13:42:41.674Z,60.28
2019-04-04T13:45:11.398Z,58.07
2019-04-04T13:47:40.831Z,57.80
2019-04-04T13:50:12.666Z,57.83
2019-04-04T13:52:42.308Z,56.70
2019-04-04T13:55:11.830Z,57.27
2019-04-04T13:57:41.251Z,54.67
2019-04-04T14:00:12.640Z,53.45
2019-04-04T14:02:42.057Z,56.16
2019-04-04T14:05:14.360Z,56.34
2019-04-04T14:07:43.983Z,55.27
2019-04-04T14:10:17.024Z,55.78
2019-04-04T14:12:44.870Z,56.94
2019-04-04T14:15:14.607Z,56.55
2019-04-04T14:17:44.296Z,56.93
2019-04-04T14:20:14.148Z,56.99
2019-04-04T14:22:43.571Z,57.96
2019-04-04T14:25:13.219Z,56.19
2019-04-04T14:27:42.633Z,56.30
2019-04-04T14:30:12.755Z,57.60
2019-04-04T14:32:42.495Z,57.57
2019-04-04T14:35:12.402Z,57.80
2019-04-04T14:37:41.891Z,60.06
2019-04-04T14:40:11.557Z,62.45
2019-04-04T14:42:41.220Z,62.69
2019-04-04T14:45:11.661Z,62.23
2019-04-04T14:47:41.091Z,63.58
2019-04-04T14:50:10.657Z,62.81
2019-04-04T14:52:40.071Z,63.54
2019-04-04T14:55:09.618Z,62.28
2019-04-04T14:57:39.065Z,61.81
2019-04-04T15:00:10.843Z,62.71
2019-04-04T15:02:40.268Z,62.45
2019-04-04T15:05:09.917Z,62.13
2019-04-04T15:07:39.329Z,61.43
2019-04-04T15:10:09.258Z,61.96
2019-04-04T15:12:38.677Z,62.20
2019-04-04T15:15:08.497Z,62.50
2019-04-04T15:17:38.071Z,61.94
2019-04-04T15:20:07.946Z,60.38
2019-04-04T15:22:37.339Z,60.18
2019-04-04T15:25:06.839Z,60.32
2019-04-04T15:27:37.562Z,59.26
2019-04-04T15:30:08.393Z,59.56
2019-04-04T15:32:37.797Z,58.95
2019-04-04T15:35:07.574Z,57.88
2019-04-04T15:37:37.049Z,57.23
2019-04-04T15:40:08.677Z,57.89
2019-04-04T15:42:38.105Z,56.89
2019-04-04T15:45:08.456Z,58.00
2019-04-04T15:47:37.919Z,55.02
2019-04-04T15:50:08.573Z,56.50
2019-04-04T15:52:38.006Z,56.86
2019-04-04T15:55:07.584Z,56.82
2019-04-04T15:57:36.976Z,54.81
2019-04-04T16:00:07.634Z,56.37
2019-04-04T16:02:37.031Z,57.32
2019-04-04T16:05:07.474Z,58.41
2019-04-04T16:07:37.057Z,58.31
2019-04-04T16:10:08.282Z,56.44
2019-04-04T16:12:37.681Z,55.62
2019-04-04T16:15:07.724Z,57.40
2019-04-04T16:17:37.119Z,59.37
2019-04-04T16:20:08.356Z,60.86
2019-04-04T16:22:37.819Z,62.65
2019-04-04T16:25:07.885Z,62.80
2019-04-04T16:27:37.269Z,62.98
2019-04-04T16:30:08.270Z,63.80
2019-04-04T16:32:37.803Z,64.23
2019-04-04T16:35:07.373Z,64.38
2019-04-04T16:37:36.770Z,63.63
2019-04-04T16:40:09.621Z,62.42
2019-04-04T16:42:39.185Z,63.37
2019-04-04T16:45:08.865Z,63.31
2019-04-04T16:47:38.673Z,63.54
2019-04-04T16:50:08.527Z,63.11
2019-04-04T16:52:37.916Z,61.98
2019-04-04T16:55:08.188Z,62.67
2019-04-04T16:57:37.582Z,61.98
2019-04-04T17:00:10.252Z,62.47
2019-04-04T17:02:39.638Z,62.85
2019-04-04T17:05:11.093Z,62.00
2019-04-04T17:07:40.709Z,62.51
2019-04-04T17:10:10.851Z,62.78
2019-04-04T17:12:40.245Z,63.59
2019-04-04T17:15:10.298Z,63.59
2019-04-04T17:17:39.689Z,63.37
2019-04-04T17:20:09.550Z,64.34
2019-04-04T17:22:38.954Z,65.04
2019-04-04T17:25:08.610Z,65.05
2019-04-04T17:27:38.122Z,65.25
2019-04-04T17:30:09.677Z,65.84
2019-04-04T17:32:39.066Z,66.23
2019-04-04T17:35:08.816Z,66.65
2019-04-04T17:37:38.343Z,66.53
2019-04-04T17:40:08.489Z,66.94
2019-04-04T17:42:37.875Z,66.58
2019-04-04T17:45:09.425Z,67.24
2019-04-04T17:47:38.944Z,67.48
2019-04-04T17:50:11.157Z,67.84
2019-04-04T17:52:40.554Z,67.51
2019-04-04T17:55:10.590Z,68.27
2019-04-04T17:57:39.983Z,67.84
2019-04-04T18:00:12.049Z,68.38
2019-04-04T18:02:41.443Z,68.41
2019-04-04T18:05:11.187Z,68.39
2019-04-04T18:07:40.579Z,68.95
2019-04-04T18:10:11.228Z,69.33
2019-04-04T18:12:41.105Z,69.66
2019-04-04T18:15:11.260Z,70.10
2019-04-04T18:17:40.658Z,70.40
2019-04-04T18:20:11.797Z,71.11
2019-04-04T18:22:41.196Z,71.34
2019-04-04T18:25:10.605Z,71.93
2019-04-04T18:27:42.504Z,72.19
2019-04-04T18:30:12.249Z,72.61
2019-04-04T18:32:41.714Z,72.96
2019-04-04T18:35:11.658Z,73.39
2019-04-04T18:37:41.593Z,73.91
2019-04-04T18:40:11.742Z,74.39
2019-04-04T18:42:52.507Z,74.42
2019-04-04T18:45:12.771Z,74.55
2019-04-04T18:47:42.179Z,74.66
2019-04-04T18:50:12.212Z,74.72
2019-04-04T18:52:41.642Z,74.90
2019-04-04T18:55:19.752Z,75.16
2019-04-04T18:57:43.106Z,75.15
2019-04-04T19:00:13.284Z,75.36
2019-04-04T19:02:43.362Z,75.70
2019-04-04T19:05:13.102Z,76.07
2019-04-04T19:07:42.652Z,76.34
2019-04-04T19:10:12.297Z,76.03
2019-04-04T19:12:41.703Z,76.17
2019-04-04T19:15:11.651Z,76.42
2019-04-04T19:17:41.153Z,76.73
2019-04-04T19:20:11.073Z,77.03
2019-04-04T19:22:40.552Z,77.39
2019-04-04T19:25:10.487Z,77.62
2019-04-04T19:27:41.667Z,77.76
2019-04-04T19:30:12.179Z,77.77
2019-04-04T19:32:41.615Z,78.26
2019-04-04T19:35:11.243Z,78.40
2019-04-04T19:37:40.710Z,78.38
2019-04-04T19:40:10.747Z,78.46
2019-04-04T19:42:44.086Z,78.68
2019-04-04T19:45:14.408Z,79.15
2019-04-04T19:47:43.818Z,79.16
2019-04-04T19:50:14.297Z,79.47
2019-04-04T19:52:43.689Z,79.44
2019-04-04T19:55:13.257Z,79.53
2019-04-04T19:57:42.668Z,79.98
2019-04-04T20:00:13.176Z,79.94
2019-04-04T20:02:44.058Z,79.77
2019-04-04T20:05:13.949Z,79.73
2019-04-04T20:07:43.357Z,79.67
2019-04-04T20:10:12.838Z,79.54
2019-04-04T20:12:42.237Z,79.74
2019-04-04T20:15:11.868Z,79.80
2019-04-04T20:17:41.269Z,79.92
2019-04-04T20:20:10.990Z,79.74
2019-04-04T20:22:40.482Z,79.65
2019-04-04T20:25:10.114Z,79.66
2019-04-04T20:27:39.536Z,79.91
2019-04-04T20:30:09.959Z,80.03
2019-04-04T20:32:39.353Z,80.35
2019-04-04T20:35:09.294Z,80.83
2019-04-04T20:37:38.726Z,80.83
2019-04-04T20:40:08.461Z,80.66
2019-04-04T20:42:39.551Z,80.64
2019-04-04T20:45:09.327Z,80.41
2019-04-04T20:47:38.733Z,80.40
2019-04-04T20:50:08.876Z,80.50
2019-04-04T20:52:38.287Z,81.22
2019-04-04T20:55:07.756Z,81.35
2019-04-04T20:57:37.176Z,81.29
2019-04-04T21:00:09.972Z,81.00
2019-04-04T21:02:39.367Z,81.37
2019-04-04T21:05:08.944Z,81.75
2019-04-04T21:07:38.358Z,81.55
2019-04-04T21:10:08.289Z,81.16
2019-04-04T21:12:37.692Z,80.81
2019-04-04T21:15:07.632Z,80.31
2019-04-04T21:17:37.040Z,80.49
2019-04-04T21:20:07.667Z,80.35
2019-04-04T21:22:37.074Z,80.30
2019-04-04T21:25:07.411Z,80.35
2019-04-04T21:27:36.822Z,80.18
2019-04-04T21:30:09.782Z,80.07
2019-04-04T21:32:39.206Z,80.19
2019-04-04T21:35:08.669Z,80.47
2019-04-04T21:37:38.083Z,80.75
2019-04-04T21:40:07.539Z,80.71
2019-04-04T21:42:37.046Z,80.92
2019-04-04T21:45:07.583Z,80.93
2019-04-04T21:47:37.027Z,80.83
2019-04-04T21:50:08.078Z,80.76
2019-04-04T21:52:37.964Z,81.33
2019-04-04T21:55:07.502Z,81.44
2019-04-04T21:57:36.919Z,81.88
2019-04-04T22:00:09.088Z,82.03
2019-04-04T22:02:38.495Z,81.68
2019-04-04T22:05:08.901Z,81.60
2019-04-04T22:07:38.308Z,81.68
2019-04-04T22:10:08.550Z,81.54
2019-04-04T22:12:37.965Z,81.90
2019-04-04T22:15:07.897Z,81.88
2019-04-04T22:17:38.111Z,81.81
2019-04-04T22:20:07.757Z,81.43
2019-04-04T22:22:37.165Z,81.36
2019-04-04T22:25:08.208Z,81.36
2019-04-04T22:27:37.963Z,81.22
2019-04-04T22:30:09.194Z,81.23
2019-04-04T22:32:38.638Z,81.41
2019-04-04T22:35:08.179Z,81.63
2019-04-04T22:37:37.596Z,81.56
2019-04-04T22:40:07.834Z,81.56
2019-04-04T22:42:37.224Z,81.62
2019-04-04T22:45:08.485Z,81.58
2019-04-04T22:47:37.970Z,81.68
2019-04-04T22:50:07.741Z,81.60
2019-04-04T22:52:37.139Z,81.57
2019-04-04T22:55:07.315Z,81.43
2019-04-04T22:57:36.803Z,81.52
2019-04-04T23:00:08.031Z,81.60
2019-04-04T23:02:37.404Z,81.62
2019-04-04T23:05:07.570Z,81.41
2019-04-04T23:07:36.964Z,81.46
2019-04-04T23:10:08.411Z,81.16
2019-04-04T23:12:37.892Z,81.49
2019-04-04T23:15:10.118Z,81.63
2019-04-04T23:17:39.506Z,81.59
2019-04-04T23:20:09.658Z,81.44
2019-04-04T23:22:51.683Z,81.87
2019-04-04T23:25:10.503Z,81.63
2019-04-04T23:27:39.909Z,81.65
2019-04-04T23:30:09.737Z,81.74
2019-04-04T23:32:39.131Z,82.13
2019-04-04T23:35:08.712Z,82.07
2019-04-04T23:37:38.104Z,82.40
2019-04-04T23:40:07.967Z,82.59
2019-04-04T23:42:37.430Z,82.46
2019-04-04T23:45:07.914Z,82.12
2019-04-04T23:47:42.973Z,82.04
2019-04-04T23:50:08.575Z,81.95
2019-04-04T23:52:37.973Z,82.35
2019-04-04T23:55:07.561Z,82.69
2019-04-04T23:57:36.963Z,82.89
